This is the latest recevied weather packets stored in our database for station/object KD7JB. If no packets are shown the sender has not sent any weather packets the latest 1 day(s).
| Time | Temp. | Humidity | Pressure | Rain* | Wind** | Luminosity | Snow |
|---|---|---|---|---|---|---|---|
| 1778021766 | 21.67° C | 44% | 1174.5 hPa | 0 mm | 2.24 m/s, 340° | 606 W/m² | - |
| 1778021462 | 20.56° C | 40% | 1174.7 hPa | 0 mm | 0.89 m/s, 291° | 642 W/m² | - |
| 1778021159 | 21.11° C | 43% | 1174.8 hPa | 0 mm | 3.58 m/s, 316° | 133 W/m² | - |
| 1778020857 | 21.11° C | 42% | 1174.6 hPa | 0 mm | 3.13 m/s, 297° | 575 W/m² | - |
| 1778020554 | 21.67° C | 42% | 1174.8 hPa | 0 mm | 2.68 m/s, 292° | 586 W/m² | - |
| 1778020250 | 21.11° C | 39% | 1174.8 hPa | 0 mm | 3.58 m/s, 280° | 610 W/m² | - |
| 1778019946 | 21.11° C | 42% | 1174.8 hPa | 0 mm | 1.79 m/s, 273° | 622 W/m² | - |
| 1778019642 | 21.11° C | 44% | 1174.8 hPa | 0 mm | 2.24 m/s, 254° | 613 W/m² | - |
| 1778019340 | 21.11° C | 44% | 1174.6 hPa | 0 mm | 1.79 m/s, 282° | 649 W/m² | - |
| 1778019036 | 21.11° C | 45% | 1174.8 hPa | 0 mm | 1.79 m/s, 236° | 635 W/m² | - |
| 1778018733 | 21.11° C | 44% | 1174.7 hPa | 0 mm | 4.47 m/s, 259° | 628 W/m² | - |
| 1778018431 | 20.56° C | 44% | 1174.7 hPa | 0 mm | 2.68 m/s, 210° | 664 W/m² | - |
| 1778018129 | 20.56° C | 44% | 1174.9 hPa | 0 mm | 1.79 m/s, 214° | 649 W/m² | - |
| 1778017827 | 20.56° C | 43% | 1174.9 hPa | 0 mm | 0.89 m/s, 61° | 664 W/m² | - |
| 1778017525 | 20.56° C | 45% | 1174.9 hPa | 0 mm | 1.79 m/s, 225° | 662 W/m² | - |
| 1778017221 | 20° C | 44% | 1175.2 hPa | 0 mm | 2.24 m/s, 322° | 682 W/m² | - |
| 1778016919 | 20° C | 44% | 1175.2 hPa | 0 mm | 2.68 m/s, 262° | 576 W/m² | - |
| 1778016615 | 20.56° C | 45% | 1175.1 hPa | 0 mm | 2.24 m/s, 266° | 125 W/m² | - |
| 1778016311 | 19.44° C | 46% | 1175.4 hPa | 0 mm | 0.45 m/s, 72° | 698 W/m² | - |
| 1778016009 | 20° C | 45% | 1175.2 hPa | 0 mm | 0.45 m/s, 279° | 85 W/m² | - |
| 1778015706 | 19.44° C | 48% | 1175.2 hPa | 0 mm | 0.89 m/s, 187° | 729 W/m² | - |
| 1778015402 | 20.56° C | 44% | 1175.2 hPa | 0 mm | 1.79 m/s, 286° | 582 W/m² | - |
| 1778015099 | 20.56° C | 45% | 1175.3 hPa | 0 mm | 5.36 m/s, 299° | 720 W/m² | - |
| 1778014796 | 20.56° C | 43% | 1175.3 hPa | 0 mm | 0 m/s | 758 W/m² | - |
| 1778014495 | 20.56° C | 44% | 1175.4 hPa | 0 mm | 0 m/s | 752 W/m² | - |
* Rain latest hour (hover to see other rain measurements)
** Current wind speed in m/s (hover to see current wind gust speed)